Time;durP1;ratioP1;P1;durP2;ratioP2;P2;SDS_P1;SDS_P2;PMS_P1;PMS_P2;Temp;Humidity;BMP_temperature;BMP_pressure;BME280_temperature;BME280_humidity;BME280_pressure;Samples;Min_cycle;Max_cycle;Signal;HPM_P1;HPM_P2
2023/08/10 00:01:11;;;;;;;0.57;0.57;;;;;;;18.29;58.16;101492.63;5190486;28;20087;-86
2023/08/10 00:04:02;;;;;;;0.13;0.13;;;;;;;18.21;58.39;101495.63;5197274;28;20226;-86
2023/08/10 00:06:53;;;;;;;0.20;0.20;;;;;;;18.18;58.28;101493.97;5180586;28;20028;-87
2023/08/10 00:09:44;;;;;;;0.38;0.38;;;;;;;18.14;58.37;101484.41;5215727;28;20074;-89
2023/08/10 00:12:36;;;;;;;0.30;0.30;;;;;;;18.04;58.91;101489.31;5207565;28;20029;-87
2023/08/10 00:15:27;;;;;;;0.50;0.50;;;;;;;18.05;58.82;101479.56;5183806;28;20044;-87
2023/08/10 00:18:19;;;;;;;0.47;0.47;;;;;;;18.02;58.71;101482.34;5205416;28;20051;-86
2023/08/10 00:21:10;;;;;;;0.57;0.50;;;;;;;18.01;58.79;101488.59;5200279;28;20063;-86
2023/08/10 00:24:01;;;;;;;0.82;0.82;;;;;;;17.92;58.74;101485.38;5181667;28;20416;-86
2023/08/10 00:26:52;;;;;;;0.28;0.28;;;;;;;17.90;59.30;101479.28;5200544;28;20025;-87
2023/08/10 00:29:43;;;;;;;0.90;0.55;;;;;;;17.86;58.91;101485.69;5216837;28;20048;-87
2023/08/10 00:32:35;;;;;;;0.22;0.22;;;;;;;17.82;59.19;101483.22;5184620;28;20034;-86
2023/08/10 00:35:26;;;;;;;0.82;0.82;;;;;;;17.79;58.70;101481.59;5186277;28;20521;-86
2023/08/10 00:38:17;;;;;;;0.30;0.30;;;;;;;17.80;58.95;101485.97;5190893;28;20320;-88
2023/08/10 00:41:08;;;;;;;0.70;0.70;;;;;;;17.76;59.05;101489.66;5206927;28;20194;-89
2023/08/10 00:43:58;;;;;;;0.30;0.30;;;;;;;17.69;59.14;101480.28;5197283;28;20505;-87
2023/08/10 00:46:50;;;;;;;0.30;0.30;;;;;;;17.64;58.93;101479.63;5202167;28;20720;-88
2023/08/10 00:49:41;;;;;;;0.30;0.30;;;;;;;17.62;59.22;101491.16;5200088;28;20045;-87
2023/08/10 00:52:33;;;;;;;0.30;0.30;;;;;;;17.60;59.49;101485.06;5196565;28;20025;-87
2023/08/10 00:55:24;;;;;;;0.20;0.20;;;;;;;17.60;59.54;101492.16;5189056;28;20043;-86
2023/08/10 00:58:15;;;;;;;0.70;0.70;;;;;;;17.62;58.84;101491.16;5193775;28;20504;-89
2023/08/10 01:01:06;;;;;;;0.20;0.20;;;;;;;17.67;59.19;101498.03;5188564;28;20108;-87
2023/08/10 01:03:57;;;;;;;0.20;0.20;;;;;;;17.58;59.49;101486.91;5202035;28;20029;-87
2023/08/10 01:07:06;;;;;;;0.80;0.63;;;;;;;17.50;59.56;101489.03;5194896;28;20020;-85
2023/08/10 01:10:12;;;;;;;0.43;0.43;;;;;;;17.45;59.37;101485.75;5195899;28;20021;-87
2023/08/10 01:13:16;;;;;;;0.40;0.40;;;;;;;17.42;59.63;101496.47;5195101;28;20519;-86
2023/08/10 01:16:10;;;;;;;1.55;1.45;;;;;;;17.44;59.99;101491.97;5207263;28;20056;-87
2023/08/10 01:19:01;;;;;;;0.73;0.73;;;;;;;17.39;59.88;101489.50;5208037;28;20033;-87
2023/08/10 01:22:07;;;;;;;0.50;0.50;;;;;;;17.48;59.45;101504.16;5202545;28;20464;-88
2023/08/10 01:25:04;;;;;;;0.22;0.22;;;;;;;17.42;59.74;101499.13;5205296;28;20017;-87
2023/08/10 01:27:56;;;;;;;0.30;0.30;;;;;;;17.40;59.46;101507.16;5198528;28;20036;-87
2023/08/10 01:30:47;;;;;;;0.57;0.55;;;;;;;17.35;59.62;101495.03;5199918;28;20021;-86
2023/08/10 01:33:38;;;;;;;0.25;0.25;;;;;;;17.40;59.72;101500.97;5220239;28;20439;-86
2023/08/10 01:36:29;;;;;;;0.30;0.30;;;;;;;17.39;59.45;101510.75;5188190;28;20040;-87
2023/08/10 01:39:20;;;;;;;0.65;0.65;;;;;;;17.27;60.06;101508.63;5208932;28;20090;-86
2023/08/10 01:42:10;;;;;;;0.38;0.38;;;;;;;17.25;59.95;101511.31;5198794;28;20029;-88
2023/08/10 01:45:04;;;;;;;0.30;0.30;;;;;;;17.23;60.00;101510.50;5200424;28;20496;-87
2023/08/10 01:48:27;;;;;;;0.20;0.20;;;;;;;17.19;60.16;101505.44;5219094;28;20143;-87
2023/08/10 01:51:23;;;;;;;0.30;0.30;;;;;;;17.16;60.27;101506.41;5198024;28;20050;-86
2023/08/10 01:54:15;;;;;;;0.40;0.40;;;;;;;17.19;59.87;101514.25;5186236;28;20025;-87
2023/08/10 01:57:07;;;;;;;0.40;0.40;;;;;;;17.23;59.93;101507.00;5191949;28;20024;-85
2023/08/10 01:59:57;;;;;;;0.60;0.60;;;;;;;17.16;60.50;101501.09;5205649;28;20035;-87
2023/08/10 02:02:48;;;;;;;0.35;0.35;;;;;;;17.17;60.09;101508.13;5220301;28;20082;-87
2023/08/10 02:05:39;;;;;;;0.75;0.75;;;;;;;17.13;60.17;101510.06;5216611;28;20361;-85
2023/08/10 02:08:30;;;;;;;6.82;1.90;;;;;;;17.11;60.11;101500.44;5187411;28;20067;-87
2023/08/10 02:11:21;;;;;;;16.00;1.05;;;;;;;17.09;60.36;101508.47;5186534;28;20056;-86
2023/08/10 02:14:12;;;;;;;0.57;0.57;;;;;;;17.04;60.72;101506.94;5195249;28;20444;-87
2023/08/10 02:17:03;;;;;;;0.30;0.30;;;;;;;17.12;60.32;101504.81;5192200;28;20040;-87
2023/08/10 02:19:54;;;;;;;32.65;2.20;;;;;;;17.13;60.29;101501.25;5199612;28;20030;-87
2023/08/10 02:22:49;;;;;;;1.05;0.95;;;;;;;17.14;60.43;101509.13;5201550;28;20709;-85
2023/08/10 02:25:40;;;;;;;0.98;0.80;;;;;;;17.13;60.40;101511.84;5187868;28;20040;-86
2023/08/10 02:28:31;;;;;;;2.70;0.70;;;;;;;17.10;60.50;101507.56;5188435;28;20018;-87
2023/08/10 02:31:23;;;;;;;3.35;1.35;;;;;;;17.05;60.65;101509.50;5197140;28;20607;-88
2023/08/10 02:34:14;;;;;;;2.70;2.45;;;;;;;17.00;60.56;101506.22;5191772;28;20025;-87
2023/08/10 02:37:05;;;;;;;0.73;0.73;;;;;;;16.97;60.55;101507.19;5187903;28;20037;-87
2023/08/10 02:39:56;;;;;;;1.45;1.05;;;;;;;16.95;60.91;101503.75;5218006;28;20557;-86
2023/08/10 02:42:47;;;;;;;0.88;0.88;;;;;;;16.99;61.19;101504.47;5203691;28;20027;-85
2023/08/10 02:45:37;;;;;;;3.42;2.05;;;;;;;17.01;60.59;101507.06;5193516;28;20025;-88
2023/08/10 02:48:28;;;;;;;0.20;0.20;;;;;;;17.05;60.85;101512.16;5203748;28;20460;-86
2023/08/10 02:51:19;;;;;;;22.38;1.15;;;;;;;17.06;61.31;101513.91;5193254;28;20203;-86
2023/08/10 02:54:10;;;;;;;0.20;0.20;;;;;;;16.97;60.81;101507.19;5195994;28;20096;-86
2023/08/10 02:57:00;;;;;;;0.20;0.20;;;;;;;16.92;60.49;101503.81;5189111;28;20107;-87
2023/08/10 02:59:51;;;;;;;0.70;0.70;;;;;;;16.90;60.92;101503.03;5200040;28;20029;-87
2023/08/10 03:02:43;;;;;;;2.67;1.30;;;;;;;16.84;61.15;101498.84;5189975;28;20618;-87
2023/08/10 03:05:34;;;;;;;5.72;2.80;;;;;;;16.84;60.95;101505.94;5202169;28;20166;-85
2023/08/10 03:08:25;;;;;;;0.63;0.63;;;;;;;16.83;61.27;101504.19;5199469;28;20021;-87
2023/08/10 03:11:16;;;;;;;0.10;0.10;;;;;;;16.78;61.27;101509.69;5189277;28;20116;-87
2023/08/10 03:14:07;;;;;;;1.33;1.23;;;;;;;16.75;61.69;101516.91;5199821;28;20033;-86
2023/08/10 03:16:57;;;;;;;1.38;1.27;;;;;;;16.73;61.48;101511.66;5203684;28;20439;-87
2023/08/10 03:19:48;;;;;;;0.32;0.32;;;;;;;16.73;61.69;101518.78;5187110;28;20017;-88
2023/08/10 03:22:39;;;;;;;0.20;0.20;;;;;;;16.74;61.58;101518.69;5211415;28;20037;-87
2023/08/10 03:25:32;;;;;;;0.40;0.40;;;;;;;16.75;61.39;101524.84;5197547;28;20187;-86
2023/08/10 03:28:23;;;;;;;0.10;0.10;;;;;;;16.73;61.30;101527.56;5184584;28;20412;-86
2023/08/10 03:31:14;;;;;;;0.93;0.93;;;;;;;16.71;61.42;101536.50;5183598;28;20029;-87
2023/08/10 03:34:04;;;;;;;0.47;0.47;;;;;;;16.64;61.80;101536.75;5191367;28;20444;-85
2023/08/10 03:36:55;;;;;;;1.13;1.08;;;;;;;16.58;62.02;101521.09;5200962;28;20078;-85
2023/08/10 03:39:46;;;;;;;2.83;0.68;;;;;;;16.57;61.84;101531.75;5191772;28;20029;-87
2023/08/10 03:42:37;;;;;;;0.38;0.38;;;;;;;16.55;61.91;101533.59;5186442;28;20179;-87
2023/08/10 03:45:28;;;;;;;0.20;0.20;;;;;;;16.66;61.73;101542.00;5208990;28;20033;-87
2023/08/10 03:48:19;;;;;;;3.45;2.28;;;;;;;16.64;61.63;101546.47;5205676;28;20044;-88
2023/08/10 03:51:10;;;;;;;9.55;1.75;;;;;;;16.55;61.40;101547.72;5222394;28;20067;-87
2023/08/10 03:54:00;;;;;;;1.10;1.02;;;;;;;16.47;61.60;101548.00;5206014;28;20032;-87
2023/08/10 03:56:51;;;;;;;0.52;0.52;;;;;;;16.45;62.04;101549.84;5186808;28;20029;-87
2023/08/10 03:59:42;;;;;;;2.30;1.90;;;;;;;16.41;62.17;101552.66;5210725;28;20358;-86
2023/08/10 04:02:33;;;;;;;0.20;0.20;;;;;;;16.40;62.19;101553.63;5194913;28;20045;-88
2023/08/10 04:05:24;;;;;;;12.43;2.70;;;;;;;16.39;62.00;101552.72;5189679;28;20029;-88
2023/08/10 04:08:14;;;;;;;0.52;0.30;;;;;;;16.40;62.07;101554.47;5186708;28;20061;-87
2023/08/10 04:11:05;;;;;;;0.20;0.20;;;;;;;16.33;61.96;101552.97;5192352;28;20033;-88
2023/08/10 04:13:56;;;;;;;1.30;1.20;;;;;;;16.26;62.40;101557.63;5198814;28;20029;-87
2023/08/10 04:16:47;;;;;;;0.20;0.20;;;;;;;16.26;62.32;101562.06;5188412;28;20029;-87
2023/08/10 04:19:38;;;;;;;7.88;1.20;;;;;;;16.23;62.47;101563.06;5183211;28;20532;-88
2023/08/10 04:22:28;;;;;;;9.00;1.50;;;;;;;16.28;61.92;101563.75;5188432;28;20037;-89
2023/08/10 04:25:19;;;;;;;0.20;0.20;;;;;;;16.27;62.40;101569.09;5187941;28;20025;-87
2023/08/10 04:28:10;;;;;;;10.95;2.58;;;;;;;16.23;62.53;101568.34;5187379;28;20451;-87
2023/08/10 04:31:01;;;;;;;0.80;0.65;;;;;;;16.23;62.01;101557.75;5181886;28;20030;-88
2023/08/10 04:33:52;;;;;;;0.80;0.80;;;;;;;16.23;62.20;101562.19;5198227;28;20039;-89
2023/08/10 04:36:43;;;;;;;2.40;1.67;;;;;;;16.12;62.59;101566.09;5189218;28;20472;-88
2023/08/10 04:39:33;;;;;;;5.22;1.90;;;;;;;16.13;62.88;101564.31;5200205;28;20044;-86
2023/08/10 04:42:24;;;;;;;33.10;2.28;;;;;;;16.08;62.74;101564.47;5182792;28;20029;-88
2023/08/10 04:45:15;;;;;;;3.38;2.40;;;;;;;16.08;62.85;101575.06;5189679;28;20036;-87
2023/08/10 04:48:07;;;;;;;1.50;1.40;;;;;;;16.10;62.98;101567.06;5194236;28;20021;-87
2023/08/10 04:50:58;;;;;;;0.70;0.70;;;;;;;16.10;63.22;101572.34;5195411;28;20120;-90
2023/08/10 04:53:48;;;;;;;15.30;0.95;;;;;;;16.09;62.80;101560.03;5211415;28;20053;-89
2023/08/10 04:56:39;;;;;;;2.92;1.40;;;;;;;16.11;63.22;101566.16;5205835;28;20025;-87
2023/08/10 04:59:31;;;;;;;2.75;0.80;;;;;;;16.11;63.15;101563.50;5195520;28;20040;-88
2023/08/10 05:02:22;;;;;;;0.75;0.75;;;;;;;16.08;63.20;101556.53;5194819;28;20125;-87
2023/08/10 05:05:13;;;;;;;8.85;0.70;;;;;;;16.15;63.14;101559.84;5189265;28;20473;-88
2023/08/10 05:08:04;;;;;;;1.10;1.00;;;;;;;16.17;63.21;101566.78;5188845;28;20427;-89
2023/08/10 05:10:55;;;;;;;5.25;1.55;;;;;;;16.21;63.13;101560.44;5189414;28;20026;-88
2023/08/10 05:13:46;;;;;;;0.43;0.43;;;;;;;16.19;63.43;101562.31;5185409;28;20415;-87
2023/08/10 05:16:37;;;;;;;0.50;0.50;;;;;;;16.21;63.00;101554.31;5184018;28;20036;-87
2023/08/10 05:19:27;;;;;;;5.40;1.27;;;;;;;16.19;63.71;101564.06;5187429;28;20043;-88
2023/08/10 05:22:19;;;;;;;0.40;0.40;;;;;;;16.18;63.80;101565.00;5182289;28;20578;-87
2023/08/10 05:25:12;;;;;;;0.50;0.50;;;;;;;16.23;63.53;101571.00;5183484;28;20047;-90
2023/08/10 05:28:03;;;;;;;0.50;0.50;;;;;;;16.26;63.34;101570.03;5184177;28;20161;-88
2023/08/10 05:30:54;;;;;;;0.40;0.40;;;;;;;16.25;64.17;101571.78;5183123;28;20033;-88
2023/08/10 05:33:45;;;;;;;1.52;0.98;;;;;;;16.27;63.33;101571.75;5205275;28;20035;-88
2023/08/10 05:36:35;;;;;;;0.20;0.20;;;;;;;16.28;63.54;101574.34;5191594;28;20497;-87
2023/08/10 05:39:26;;;;;;;1.45;1.10;;;;;;;16.28;64.16;101576.97;5216349;28;20479;-87
2023/08/10 05:42:17;;;;;;;1.38;1.13;;;;;;;16.28;65.33;101571.69;5192083;28;20029;-88
2023/08/10 05:45:09;;;;;;;1.48;0.70;;;;;;;16.28;65.05;101579.63;5188567;28;20033;-87
2023/08/10 05:48:00;;;;;;;0.98;0.98;;;;;;;16.35;64.20;101577.63;5215627;28;20028;-88
2023/08/10 05:50:50;;;;;;;1.38;1.27;;;;;;;16.31;64.68;101571.59;5197370;28;20028;-88
2023/08/10 05:53:41;;;;;;;0.75;0.47;;;;;;;16.35;63.91;101572.31;5217506;28;20072;-87
2023/08/10 05:56:32;;;;;;;2.22;1.35;;;;;;;16.33;64.39;101575.00;5217633;28;20044;-86
2023/08/10 05:59:23;;;;;;;0.75;0.75;;;;;;;16.30;69.22;101574.25;5186680;28;20473;-87
2023/08/10 06:02:14;;;;;;;0.80;0.80;;;;;;;16.40;66.12;101573.00;5212273;28;20055;-86
2023/08/10 06:05:06;;;;;;;0.75;0.75;;;;;;;16.33;66.84;101574.16;5229023;28;20069;-89
2023/08/10 06:07:57;;;;;;;0.30;0.30;;;;;;;16.41;65.53;101581.78;5226431;28;20017;-88
2023/08/10 06:10:51;;;;;;;0.30;0.30;;;;;;;16.46;64.81;101579.84;5226487;28;20033;-89
2023/08/10 06:13:41;;;;;;;;;;;;;;;16.46;67.63;101588.66;5213690;28;20074;-87
2023/08/10 06:16:33;;;;;;;7.47;1.92;;;;;;;16.38;67.06;101582.78;5191185;28;19913;-86
2023/08/10 06:19:24;;;;;;;0.20;0.20;;;;;;;16.36;66.13;101580.19;5184058;28;20132;-87
2023/08/10 06:22:15;;;;;;;0.30;0.30;;;;;;;16.47;65.00;101586.88;5198043;28;20524;-86
2023/08/10 06:25:06;;;;;;;0.52;0.52;;;;;;;16.52;65.12;101591.09;5218746;28;20142;-88
2023/08/10 06:28:00;;;;;;;0.30;0.30;;;;;;;16.54;64.80;101583.06;5201069;28;20025;-88
2023/08/10 06:30:51;;;;;;;0.20;0.20;;;;;;;16.55;65.18;101584.81;5213855;28;20414;-87
2023/08/10 06:33:42;;;;;;;0.77;0.77;;;;;;;16.53;65.00;101576.03;5199683;28;20033;-89
2023/08/10 06:36:36;;;;;;;0.20;0.20;;;;;;;16.57;64.94;101582.94;5186232;28;20265;-87
2023/08/10 06:39:27;;;;;;;0.20;0.20;;;;;;;16.59;64.92;101588.19;5193023;28;20022;-86
2023/08/10 06:42:19;;;;;;;0.30;0.30;;;;;;;16.64;64.43;101579.16;5196354;28;20043;-87
2023/08/10 06:45:10;;;;;;;0.30;0.30;;;;;;;16.68;64.82;101585.19;5198891;28;20039;-87
2023/08/10 06:48:01;;;;;;;0.50;0.50;;;;;;;16.68;64.88;101591.34;5200219;28;20024;-87
2023/08/10 06:50:51;;;;;;;0.75;0.75;;;;;;;16.69;65.99;101586.94;5188878;28;20071;-87
2023/08/10 06:53:44;;;;;;;0.20;0.20;;;;;;;16.67;65.42;101589.63;5190579;28;20044;-87
2023/08/10 06:56:36;;;;;;;7.57;0.40;;;;;;;16.74;64.41;101589.38;5183147;28;20020;-87
2023/08/10 06:59:27;;;;;;;0.20;0.20;;;;;;;16.52;65.80;101584.91;5198605;28;20033;-87
2023/08/10 07:02:18;;;;;;;0.20;0.20;;;;;;;16.65;64.93;101593.25;5192085;28;20032;-87
2023/08/10 07:05:10;;;;;;;0.30;0.30;;;;;;;16.67;64.76;101594.91;5192030;28;20025;-87
2023/08/10 07:08:00;;;;;;;0.20;0.20;;;;;;;16.70;64.11;101595.72;5197994;28;20029;-88
2023/08/10 07:10:51;;;;;;;0.68;0.68;;;;;;;16.52;62.47;101590.22;5186563;28;20036;-88
2023/08/10 07:13:42;;;;;;;0.28;0.28;;;;;;;16.48;63.36;101588.63;5216464;28;20037;-87
2023/08/10 07:16:33;;;;;;;0.20;0.20;;;;;;;16.53;63.09;101589.28;5188418;28;20409;-87
2023/08/10 07:19:24;;;;;;;1.98;1.73;;;;;;;16.57;62.00;101588.22;5181420;28;20029;-87
2023/08/10 07:22:15;;;;;;;0.20;0.20;;;;;;;16.58;62.40;101584.66;5201409;28;20039;-88
2023/08/10 07:25:06;;;;;;;0.20;0.20;;;;;;;16.59;62.18;101583.75;5184204;28;20056;-86
2023/08/10 07:27:56;;;;;;;0.20;0.20;;;;;;;16.57;62.13;101588.22;5189929;28;20037;-87
2023/08/10 07:30:48;;;;;;;0.20;0.20;;;;;;;16.66;62.15;101582.59;5210357;28;20666;-87
2023/08/10 07:33:39;;;;;;;0.20;0.20;;;;;;;16.72;61.59;101591.25;5186230;28;20039;-87
2023/08/10 07:36:30;;;;;;;0.98;0.52;;;;;;;16.72;60.83;101593.88;5213462;28;20535;-87
2023/08/10 07:39:20;;;;;;;0.30;0.30;;;;;;;16.78;60.88;101591.84;5200146;28;20033;-87
2023/08/10 07:42:12;;;;;;;0.30;0.30;;;;;;;16.54;58.24;101588.38;5192594;28;20521;-89
2023/08/10 07:45:04;;;;;;;1.85;0.30;;;;;;;16.59;59.09;101590.84;5193108;28;20033;-87
2023/08/10 07:47:55;;;;;;;0.40;0.40;;;;;;;16.70;60.03;101593.06;5192855;28;20020;-88
2023/08/10 07:50:47;;;;;;;0.20;0.20;;;;;;;16.79;61.58;101588.28;5203369;28;20032;-87
2023/08/10 07:53:37;;;;;;;0.22;0.22;;;;;;;16.76;60.12;101593.72;5203690;28;20044;-88
2023/08/10 07:56:28;;;;;;;0.20;0.20;;;;;;;16.77;60.31;101594.56;5188924;28;20029;-87
2023/08/10 07:59:19;;;;;;;0.20;0.20;;;;;;;16.80;59.98;101584.69;5196108;28;20503;-87
2023/08/10 08:02:10;;;;;;;0.20;0.20;;;;;;;16.86;59.46;101578.28;5197827;28;20167;-89
2023/08/10 08:05:01;;;;;;;0.10;0.10;;;;;;;16.91;60.23;101575.47;5200648;28;20029;-87
2023/08/10 08:07:51;;;;;;;0.15;0.15;;;;;;;16.95;59.90;101577.09;5187668;28;20469;-87
2023/08/10 08:10:42;;;;;;;0.20;0.20;;;;;;;16.88;57.39;101581.75;5195526;28;20474;-88
2023/08/10 08:13:33;;;;;;;0.20;0.20;;;;;;;16.94;59.09;101581.53;5190522;28;20072;-87
2023/08/10 08:16:24;;;;;;;0.20;0.20;;;;;;;16.96;59.32;101579.69;5192185;28;20024;-87
2023/08/10 08:19:15;;;;;;;0.30;0.30;;;;;;;16.99;59.64;101582.19;5187268;28;20246;-88
2023/08/10 08:22:06;;;;;;;0.50;0.50;;;;;;;17.09;60.39;101588.03;5186410;28;20044;-87
2023/08/10 08:24:56;;;;;;;0.40;0.40;;;;;;;17.10;61.37;101575.59;5196910;28;20567;-87
2023/08/10 08:27:47;;;;;;;0.17;0.17;;;;;;;17.16;61.16;101588.59;5216259;28;20032;-87
2023/08/10 08:30:38;;;;;;;0.20;0.20;;;;;;;17.23;61.80;101587.44;5213541;28;20113;-87
2023/08/10 08:33:29;;;;;;;0.75;0.50;;;;;;;17.20;61.66;101576.97;5203405;28;20040;-87
2023/08/10 08:36:20;;;;;;;0.20;0.20;;;;;;;17.26;61.67;101579.34;5193094;28;20024;-87
2023/08/10 08:39:11;;;;;;;0.20;0.20;;;;;;;17.29;61.21;101581.88;5184485;28;20061;-88
2023/08/10 08:42:02;;;;;;;0.25;0.25;;;;;;;17.38;61.67;101582.44;5200110;28;20060;-87
2023/08/10 08:44:54;;;;;;;0.10;0.10;;;;;;;17.38;60.81;101574.47;5200094;28;20201;-87
2023/08/10 08:47:46;;;;;;;1.15;0.40;;;;;;;17.44;60.81;101572.41;5188460;28;20395;-88
2023/08/10 08:50:38;;;;;;;0.20;0.20;;;;;;;17.52;61.08;101558.81;5195347;28;20052;-87
2023/08/10 08:53:30;;;;;;;0.43;0.35;;;;;;;17.53;60.12;101552.59;5195182;28;20059;-87
2023/08/10 08:56:21;;;;;;;0.20;0.20;;;;;;;17.68;59.43;101550.19;5186186;28;20018;-87
2023/08/10 08:59:12;;;;;;;0.30;0.30;;;;;;;17.65;60.45;101550.31;5195140;28;20025;-87
2023/08/10 09:02:03;;;;;;;0.20;0.20;;;;;;;17.70;60.73;101549.19;5183095;28;20040;-88
2023/08/10 09:04:59;;;;;;;0.30;0.30;;;;;;;17.71;60.50;101553.56;5214920;28;20498;-87
2023/08/10 09:07:51;;;;;;;1.77;0.63;;;;;;;17.80;60.04;101544.34;5211131;28;20211;-87
2023/08/10 09:10:46;;;;;;;0.95;0.95;;;;;;;17.79;60.23;101542.63;5213182;28;20057;-87
2023/08/10 09:13:37;;;;;;;0.68;0.68;;;;;;;17.84;59.88;101547.75;5192089;28;20571;-88
2023/08/10 09:16:28;;;;;;;0.20;0.20;;;;;;;17.86;60.13;101549.38;5222348;28;20064;-88
2023/08/10 09:19:19;;;;;;;0.30;0.30;;;;;;;17.95;59.26;101548.09;5189197;28;20029;-87
2023/08/10 09:22:11;;;;;;;0.20;0.20;;;;;;;17.98;59.22;101541.81;5211486;28;20066;-87
2023/08/10 09:25:04;;;;;;;0.20;0.20;;;;;;;18.05;59.20;101545.94;5188195;28;20074;-87
2023/08/10 09:27:56;;;;;;;0.20;0.20;;;;;;;18.07;59.03;101547.59;5217906;28;20108;-88
2023/08/10 09:30:49;;;;;;;0.25;0.25;;;;;;;18.06;58.77;101545.88;5190910;28;20391;-87
2023/08/10 09:33:40;;;;;;;0.75;0.75;;;;;;;18.15;58.44;101544.56;5206230;28;20057;-87
2023/08/10 09:36:31;;;;;;;1.08;0.50;;;;;;;18.23;58.97;101547.72;5196662;28;20125;-87
2023/08/10 09:39:22;;;;;;;0.35;0.35;;;;;;;18.30;57.95;101556.28;5196191;28;20052;-88
2023/08/10 09:42:12;;;;;;;0.98;0.98;;;;;;;18.36;59.26;101555.16;5187136;28;20226;-87
2023/08/10 09:45:15;;;;;;;0.10;0.10;;;;;;;18.43;59.31;101545.94;5193554;28;20029;-87
2023/08/10 09:48:11;;;;;;;0.30;0.30;;;;;;;18.58;59.12;101540.84;5189483;28;20423;-87
2023/08/10 09:51:06;;;;;;;0.28;0.28;;;;;;;18.59;59.07;101545.22;5199392;28;20511;-87
2023/08/10 09:53:57;;;;;;;0.20;0.20;;;;;;;18.64;58.37;101540.53;5188383;28;20029;-86
2023/08/10 09:56:49;;;;;;;0.30;0.30;;;;;;;18.80;58.91;101541.50;5199841;28;20036;-87
2023/08/10 09:59:40;;;;;;;0.20;0.20;;;;;;;18.86;57.47;101546.56;5197459;28;20021;-87
2023/08/10 10:02:32;;;;;;;0.20;0.20;;;;;;;18.88;57.16;101547.31;5213047;28;20049;-87
2023/08/10 10:05:23;;;;;;;0.20;0.20;;;;;;;18.83;58.34;101537.88;5184062;28;20041;-87
2023/08/10 10:08:14;;;;;;;0.20;0.20;;;;;;;18.85;58.64;101546.59;5200596;28;20377;-86
2023/08/10 10:11:10;;;;;;;0.32;0.32;;;;;;;18.95;57.83;101542.59;5211543;28;20027;-87
2023/08/10 10:14:02;;;;;;;10.23;0.45;;;;;;;18.97;57.96;101542.50;5197778;28;20033;-87
2023/08/10 10:16:53;;;;;;;0.20;0.20;;;;;;;18.98;57.63;101534.47;5203775;28;20074;-88
2023/08/10 10:19:48;;;;;;;0.15;0.15;;;;;;;19.08;58.07;101540.19;5189156;28;20029;-87
2023/08/10 10:22:39;;;;;;;0.22;0.22;;;;;;;19.09;57.14;101535.75;5202956;28;20429;-87
2023/08/10 10:25:30;;;;;;;0.30;0.30;;;;;;;19.19;59.50;101535.22;5192895;28;20033;-87
2023/08/10 10:28:21;;;;;;;0.20;0.20;;;;;;;19.33;58.83;101537.16;5198120;28;20029;-87
2023/08/10 10:31:12;;;;;;;0.20;0.20;;;;;;;19.42;57.79;101537.63;5189557;28;20044;-87
2023/08/10 10:34:04;;;;;;;0.30;0.30;;;;;;;19.58;57.73;101538.56;5204597;28;20037;-88
2023/08/10 10:37:09;;;;;;;0.30;0.30;;;;;;;19.58;57.49;101537.69;5211898;28;20065;-88
2023/08/10 10:40:18;;;;;;;0.20;0.20;;;;;;;19.55;57.78;101527.19;5189696;28;20033;-87
2023/08/10 10:43:11;;;;;;;0.10;0.10;;;;;;;19.74;57.74;101532.44;5197296;28;20128;-87
2023/08/10 10:46:02;;;;;;;0.20;0.20;;;;;;;19.82;56.41;101539.06;5200342;28;20113;-87
2023/08/10 10:48:53;;;;;;;0.40;0.40;;;;;;;19.93;57.25;101543.84;5215665;28;20349;-88
2023/08/10 10:52:02;;;;;;;0.40;0.40;;;;;;;19.94;57.64;101542.91;5187934;28;20470;-89
2023/08/10 10:54:54;;;;;;;0.20;0.20;;;;;;;20.05;56.86;101541.47;5201244;28;20033;-87
2023/08/10 10:57:47;;;;;;;0.30;0.30;;;;;;;20.05;57.21;101544.97;5199149;28;20021;-87
2023/08/10 11:00:38;;;;;;;0.25;0.25;;;;;;;20.05;58.01;101534.31;5198299;28;20402;-87
2023/08/10 11:03:29;;;;;;;0.30;0.30;;;;;;;20.19;58.17;101535.41;5197246;28;20028;-87
2023/08/10 11:06:20;;;;;;;0.63;0.63;;;;;;;20.21;57.12;101537.03;5188272;28;20174;-87
2023/08/10 11:09:13;;;;;;;0.20;0.20;;;;;;;20.33;57.75;101539.97;5185083;28;20354;-88
2023/08/10 11:12:04;;;;;;;0.20;0.20;;;;;;;20.40;57.00;101541.34;5217637;28;20406;-88
2023/08/10 11:14:56;;;;;;;0.20;0.20;;;;;;;20.44;56.31;101535.75;5203795;28;20064;-87
2023/08/10 11:17:49;;;;;;;0.20;0.20;;;;;;;20.53;56.84;101536.19;5200755;28;20068;-87
2023/08/10 11:20:48;;;;;;;;;;;;;;;20.71;56.20;101534.28;5189493;28;20389;-88
2023/08/10 11:23:39;;;;;;;0.40;0.40;;;;;;;20.72;55.85;101528.84;5183850;28;19917;-87
2023/08/10 11:26:30;;;;;;;0.22;0.22;;;;;;;20.69;56.75;101528.16;5205936;28;20492;-87
2023/08/10 11:29:22;;;;;;;1.13;0.95;;;;;;;20.77;55.16;101522.44;5205139;28;20396;-87
2023/08/10 11:32:13;;;;;;;0.20;0.20;;;;;;;20.90;55.34;101515.44;5187660;28;20348;-88
2023/08/10 11:35:04;;;;;;;0.35;0.35;;;;;;;21.05;54.13;101522.53;5198654;28;20032;-87
2023/08/10 11:37:55;;;;;;;0.40;0.40;;;;;;;21.06;54.36;101515.41;5203757;28;20021;-87
2023/08/10 11:40:46;;;;;;;0.32;0.32;;;;;;;21.15;54.19;101506.88;5202337;28;20090;-88
2023/08/10 11:43:36;;;;;;;0.73;0.73;;;;;;;21.18;53.85;101503.16;5214719;28;20033;-87
2023/08/10 11:46:27;;;;;;;1.85;0.75;;;;;;;21.23;53.02;101493.03;5208180;28;20044;-87
2023/08/10 11:49:18;;;;;;;0.32;0.32;;;;;;;21.28;52.80;101498.09;5189334;28;20321;-88
2023/08/10 11:52:15;;;;;;;0.20;0.20;;;;;;;21.29;52.27;101499.84;5214758;28;20021;-87
2023/08/10 11:55:12;;;;;;;0.15;0.15;;;;;;;21.25;51.97;101491.16;5195711;28;20032;-88
2023/08/10 11:58:03;;;;;;;0.30;0.30;;;;;;;21.38;53.66;101497.44;5191084;28;20092;-89
2023/08/10 12:00:54;;;;;;;0.28;0.28;;;;;;;21.52;53.87;101495.78;5212614;28;20034;-89
2023/08/10 12:03:51;;;;;;;0.10;0.10;;;;;;;21.55;53.53;101495.56;5220487;28;20120;-87
2023/08/10 12:06:42;;;;;;;0.35;0.35;;;;;;;21.63;53.06;101498.66;5204341;28;20171;-88
2023/08/10 12:09:33;;;;;;;0.40;0.40;;;;;;;21.63;52.44;101498.66;5199092;28;20389;-88
2023/08/10 12:12:24;;;;;;;0.50;0.50;;;;;;;21.86;53.04;101491.03;5214094;28;20556;-87
2023/08/10 12:15:15;;;;;;;0.20;0.20;;;;;;;21.98;53.14;101492.94;5197138;28;20116;-88
2023/08/10 12:18:06;;;;;;;0.10;0.10;;;;;;;22.13;55.13;101483.09;5199859;28;20082;-87
2023/08/10 12:20:57;;;;;;;0.20;0.20;;;;;;;22.17;54.29;101489.09;5190652;28;20569;-88
2023/08/10 12:23:48;;;;;;;0.10;0.10;;;;;;;22.23;52.54;101493.19;5223085;28;20080;-89
2023/08/10 12:26:39;;;;;;;0.20;0.20;;;;;;;22.33;51.86;101496.97;5213532;28;20013;-88
2023/08/10 12:29:29;;;;;;;0.10;0.10;;;;;;;22.35;49.81;101487.03;5192475;28;20048;-87
2023/08/10 12:32:20;;;;;;;0.30;0.30;;;;;;;22.53;51.52;101482.34;5204214;28;20057;-86
2023/08/10 12:35:12;;;;;;;0.40;0.40;;;;;;;22.62;50.98;101484.41;5204581;28;20036;-88
2023/08/10 12:38:03;;;;;;;0.20;0.20;;;;;;;22.77;50.44;101478.97;5203973;28;20029;-87
2023/08/10 12:40:55;;;;;;;0.20;0.20;;;;;;;22.90;49.50;101482.56;5184052;28;20171;-88
2023/08/10 12:43:46;;;;;;;0.38;0.20;;;;;;;22.98;48.90;101481.19;5187152;28;20032;-89
2023/08/10 12:46:36;;;;;;;0.20;0.20;;;;;;;22.96;50.06;101481.31;5203076;28;20552;-88
2023/08/10 12:49:27;;;;;;;0.28;0.28;;;;;;;23.10;50.17;101483.03;5203707;28;20025;-88
2023/08/10 12:52:18;;;;;;;0.20;0.20;;;;;;;23.17;50.93;101478.97;5183985;28;20096;-87
2023/08/10 12:55:09;;;;;;;0.20;0.20;;;;;;;23.19;50.39;101474.41;5181240;28;20029;-87
2023/08/10 12:58:00;;;;;;;0.20;0.20;;;;;;;23.29;49.71;101476.44;5212961;28;20070;-87
2023/08/10 13:00:51;;;;;;;0.40;0.40;;;;;;;23.55;49.42;101478.16;5201400;28;20130;-88
2023/08/10 13:03:42;;;;;;;0.25;0.25;;;;;;;23.58;48.81;101491.34;5196548;28;20021;-87
2023/08/10 13:06:32;;;;;;;0.20;0.20;;;;;;;23.45;48.70;101476.25;5190223;28;20481;-87
2023/08/10 13:09:23;;;;;;;0.20;0.20;;;;;;;23.46;50.10;101486.00;5205316;28;20396;-87
2023/08/10 13:12:14;;;;;;;0.10;0.10;;;;;;;23.49;50.15;101500.03;5190687;28;20029;-88
2023/08/10 13:15:06;;;;;;;0.20;0.20;;;;;;;23.47;49.67;101495.75;5199225;28;20037;-87
2023/08/10 13:17:56;;;;;;;0.32;0.32;;;;;;;23.71;49.65;101494.03;5193681;28;20039;-87